createdAt,value
2018-12-01T00:02:04.895Z,7.50
2018-12-01T00:04:40.910Z,7.50
2018-12-01T00:09:54.780Z,7.50
2018-12-01T00:12:29.933Z,7.50
2018-12-01T00:17:46.790Z,7.50
2018-12-01T00:20:22.632Z,7.50
2018-12-01T00:23:01.944Z,7.50
2018-12-01T00:28:14.952Z,7.50
2018-12-01T00:33:31.809Z,7.60
2018-12-01T00:38:45.614Z,7.60
2018-12-01T00:43:58.629Z,7.60
2018-12-01T00:49:14.013Z,7.60
2018-12-01T00:51:49.204Z,7.60
2018-12-01T00:54:24.361Z,7.60
2018-12-01T00:56:58.854Z,7.60
2018-12-01T00:59:34.216Z,7.70
2018-12-01T01:02:17.414Z,7.70
2018-12-01T01:04:59.263Z,7.70
2018-12-01T01:07:34.985Z,7.70
2018-12-01T01:10:12.780Z,7.70
2018-12-01T01:15:24.720Z,7.70
2018-12-01T01:18:04.212Z,7.70
2018-12-01T01:23:20.465Z,7.70
2018-12-01T01:25:59.481Z,7.70
2018-12-01T01:28:39.222Z,7.70
2018-12-01T01:31:14.980Z,7.70
2018-12-01T01:33:50.578Z,7.70
2018-12-01T01:36:29.540Z,7.70
2018-12-01T01:39:05.282Z,7.70
2018-12-01T01:46:54.671Z,7.70
2018-12-01T01:52:11.268Z,7.60
2018-12-01T01:54:50.926Z,7.60
2018-12-01T02:00:02.956Z,7.60
2018-12-01T02:05:14.644Z,7.60
2018-12-01T02:10:24.768Z,7.60
2018-12-01T02:12:59.862Z,7.60
2018-12-01T02:18:11.877Z,7.60
2018-12-01T02:20:47.551Z,7.60
2018-12-01T02:26:03.817Z,7.60
2018-12-01T02:28:42.650Z,7.60
2018-12-01T02:31:18.056Z,7.60
2018-12-01T02:33:53.884Z,7.60
2018-12-01T02:36:37.047Z,7.60
2018-12-01T02:39:12.231Z,7.60
2018-12-01T02:41:47.365Z,7.60
2018-12-01T02:44:33.627Z,7.60
2018-12-01T02:49:51.423Z,7.60
2018-12-01T02:52:27.991Z,7.60
2018-12-01T02:57:42.158Z,7.60
2018-12-01T03:02:58.537Z,7.60
2018-12-01T03:13:27.960Z,7.60
2018-12-01T03:18:40.040Z,7.60
2018-12-01T03:21:15.024Z,7.60
2018-12-01T03:23:54.072Z,7.60
2018-12-01T03:26:29.838Z,7.60
2018-12-01T03:29:09.549Z,7.60
2018-12-01T03:31:45.519Z,7.60
2018-12-01T03:36:57.837Z,7.60
2018-12-01T03:44:47.422Z,7.60
2018-12-01T03:49:59.679Z,7.70
2018-12-01T03:52:34.362Z,7.70
2018-12-01T03:55:20.824Z,7.70
2018-12-01T04:00:34.992Z,7.70
2018-12-01T04:05:46.934Z,7.70
2018-12-01T04:08:26.909Z,7.70
2018-12-01T04:13:42.609Z,7.70
2018-12-01T04:16:20.169Z,7.70
2018-12-01T04:24:14.244Z,7.70
2018-12-01T04:34:49.380Z,7.70
2018-12-01T04:37:28.318Z,7.70
2018-12-01T04:40:11.320Z,7.70
2018-12-01T04:43:01.618Z,7.80
2018-12-01T04:45:48.613Z,7.80
2018-12-01T04:48:31.595Z,7.80
2018-12-01T05:00:28.115Z,7.80
2018-12-01T05:03:27.435Z,7.80
2018-12-01T05:06:11.950Z,7.90
2018-12-01T05:08:57.828Z,8.10
2018-12-01T05:11:46.261Z,8.20
2018-12-01T05:14:32.052Z,8.30
2018-12-01T05:17:16.190Z,8.30
2018-12-01T05:19:54.622Z,8.30
2018-12-01T05:22:33.629Z,8.20
2018-12-01T05:25:14.278Z,8.20
2018-12-01T05:27:50.669Z,8.10
2018-12-01T05:30:25.211Z,8.10
2018-12-01T05:33:02.929Z,8.00
2018-12-01T05:38:16.370Z,8.00
2018-12-01T05:44:24.817Z,7.90
2018-12-01T06:14:43.936Z,8.00
2018-12-01T06:17:18.319Z,7.90
2018-12-01T06:19:53.577Z,7.90
2018-12-01T06:22:28.029Z,7.80
2018-12-01T06:25:02.498Z,7.80
2018-12-01T06:27:41.136Z,7.80
2018-12-01T06:30:18.311Z,7.70
2018-12-01T06:32:53.083Z,7.70
2018-12-01T06:35:27.915Z,7.70
2018-12-01T06:46:05.580Z,7.80
2018-12-01T06:51:23.157Z,7.80
2018-12-01T06:56:45.382Z,7.80
2018-12-01T06:59:27.947Z,7.80
2018-12-01T07:02:13.053Z,7.80
2018-12-01T07:08:16.451Z,7.80
2018-12-01T07:11:38.054Z,7.80
2018-12-01T07:14:44.765Z,7.80
2018-12-01T07:35:53.905Z,7.90
2018-12-01T07:39:54.367Z,7.90
2018-12-01T07:42:49.934Z,7.80
2018-12-01T07:51:36.066Z,7.70
2018-12-01T07:54:22.685Z,7.70
2018-12-01T07:57:10.268Z,7.80
2018-12-01T07:59:52.519Z,7.80
2018-12-01T08:02:37.915Z,7.80
2018-12-01T08:05:21.996Z,7.80
2018-12-01T08:07:59.497Z,7.90
2018-12-01T08:10:39.816Z,7.90
2018-12-01T08:13:20.843Z,7.90
2018-12-01T08:16:09.284Z,7.90
2018-12-01T08:18:49.492Z,7.90
2018-12-01T08:21:31.853Z,8.00
2018-12-01T08:26:52.784Z,8.00
2018-12-01T08:32:09.491Z,8.00
2018-12-01T08:37:27.077Z,8.10
2018-12-01T08:40:04.129Z,8.10
2018-12-01T08:42:43.456Z,8.10
2018-12-01T08:47:59.230Z,8.20
2018-12-01T08:53:13.785Z,8.20
2018-12-01T08:55:54.267Z,8.20
2018-12-01T09:03:44.216Z,8.20
2018-12-01T09:06:18.883Z,8.20
2018-12-01T09:08:58.619Z,8.20
2018-12-01T09:11:37.450Z,8.30
2018-12-01T09:14:17.118Z,8.20
2018-12-01T09:16:52.825Z,8.20
2018-12-01T09:19:28.097Z,8.30
2018-12-01T09:22:04.337Z,8.30
2018-12-01T09:24:43.781Z,8.30
2018-12-01T09:29:58.027Z,8.30
2018-12-01T09:37:52.648Z,8.40
2018-12-01T09:40:27.789Z,8.40
2018-12-01T09:45:41.333Z,8.40
2018-12-01T09:48:20.431Z,8.40
2018-12-01T09:50:56.312Z,8.40
2018-12-01T09:53:34.258Z,8.40
2018-12-01T09:56:10.307Z,8.40
2018-12-01T09:58:50.962Z,8.40
2018-12-01T10:01:31.852Z,8.40
2018-12-01T10:04:10.113Z,8.40
2018-12-01T10:09:27.412Z,8.40
2018-12-01T10:12:07.451Z,8.40
2018-12-01T10:19:56.272Z,8.40
2018-12-01T10:25:12.793Z,8.50
2018-12-01T10:27:51.494Z,8.50
2018-12-01T10:30:31.306Z,8.50
2018-12-01T10:33:09.692Z,8.50
2018-12-01T10:35:53.244Z,8.50
2018-12-01T10:38:36.004Z,8.50
2018-12-01T10:41:21.232Z,8.50
2018-12-01T10:44:10.528Z,8.50
2018-12-01T10:46:56.446Z,8.40
2018-12-01T10:49:58.137Z,8.40
2018-12-01T10:56:11.553Z,8.40
2018-12-01T10:59:07.044Z,8.40
2018-12-01T11:07:56.768Z,8.40
2018-12-01T11:10:42.982Z,8.40
2018-12-01T11:16:42.570Z,8.40
2018-12-01T11:48:24.891Z,8.60
2018-12-01T11:51:19.119Z,8.50
2018-12-01T11:54:08.233Z,8.50
2018-12-01T11:59:40.444Z,8.50
2018-12-01T12:02:45.936Z,8.50
2018-12-01T12:05:36.215Z,8.50
2018-12-01T12:08:31.122Z,8.50
2018-12-01T12:11:12.810Z,8.60
2018-12-01T12:13:55.435Z,8.60
2018-12-01T12:19:42.394Z,8.60
2018-12-01T12:22:28.111Z,8.70
2018-12-01T12:25:18.237Z,8.70
2018-12-01T12:28:04.411Z,8.70
2018-12-01T12:33:59.977Z,8.80
2018-12-01T12:36:43.774Z,8.80
2018-12-01T12:39:20.035Z,8.80
2018-12-01T12:42:00.337Z,8.80
2018-12-01T12:44:42.157Z,8.80
2018-12-01T12:47:24.884Z,8.80
2018-12-01T12:50:01.889Z,8.80
2018-12-01T12:58:09.218Z,8.90
2018-12-01T13:00:51.811Z,8.90
2018-12-01T13:03:32.051Z,8.90
2018-12-01T13:06:09.954Z,8.90
2018-12-01T13:14:09.570Z,9.00
2018-12-01T13:16:54.510Z,8.90
2018-12-01T13:22:26.372Z,8.90
2018-12-01T13:28:08.104Z,9.00
2018-12-01T13:30:53.224Z,9.00
2018-12-01T13:36:31.176Z,8.90
2018-12-01T13:39:21.201Z,9.00
2018-12-01T13:45:13.567Z,9.00
2018-12-01T13:48:26.053Z,9.00
2018-12-01T13:51:16.528Z,9.00
2018-12-01T13:54:15.832Z,9.00
2018-12-01T15:43:45.091Z,8.90
2018-12-01T15:49:15.398Z,8.70
2018-12-01T16:22:36.907Z,10.90
2018-12-01T17:28:18.384Z,9.20
2018-12-01T17:30:56.692Z,9.00
2018-12-01T17:34:10.161Z,9.00
2018-12-01T17:36:52.105Z,9.00
2018-12-01T17:39:29.764Z,8.90
2018-12-01T17:42:05.320Z,8.90
2018-12-01T17:44:39.820Z,8.80
2018-12-01T17:47:14.235Z,8.80
2018-12-01T17:49:49.462Z,8.80
2018-12-01T17:52:23.900Z,8.80
2018-12-01T17:54:58.463Z,8.80
2018-12-01T17:57:32.922Z,8.70
2018-12-01T18:00:16.560Z,8.70
2018-12-01T18:02:52.348Z,8.70
2018-12-01T18:05:35.639Z,8.70
2018-12-01T18:08:12.762Z,8.70
2018-12-01T18:10:49.665Z,8.80
2018-12-01T18:13:25.451Z,8.80
2018-12-01T18:15:59.867Z,8.80
2018-12-01T18:18:35.726Z,8.70
2018-12-01T18:21:10.336Z,8.80
2018-12-01T18:23:44.859Z,8.80
2018-12-01T18:26:20.436Z,8.80
2018-12-01T18:28:56.815Z,8.80
2018-12-01T18:31:39.769Z,8.80
2018-12-01T18:34:22.627Z,8.80
2018-12-01T18:37:07.459Z,8.80
2018-12-01T18:39:49.959Z,8.80
2018-12-01T18:42:35.050Z,8.80
2018-12-01T18:45:19.944Z,8.80
2018-12-01T18:51:28.397Z,8.80
2018-12-01T19:01:08.454Z,9.10
2018-12-01T22:56:22.912Z,8.90
2018-12-01T22:59:05.655Z,8.80
2018-12-01T23:01:41.418Z,8.80
2018-12-01T23:04:17.752Z,8.80
2018-12-01T23:07:15.484Z,8.80
2018-12-01T23:10:09.315Z,8.80
2018-12-01T23:12:45.622Z,8.70
2018-12-01T23:15:21.699Z,8.70
2018-12-01T23:18:06.093Z,8.70
2018-12-01T23:23:49.406Z,8.70
2018-12-01T23:26:49.975Z,8.70
2018-12-01T23:32:51.649Z,8.70
2018-12-01T23:35:26.141Z,8.70
2018-12-01T23:38:00.555Z,8.80
2018-12-01T23:40:34.904Z,8.70
2018-12-01T23:43:09.681Z,8.80
2018-12-01T23:45:44.778Z,8.80
2018-12-01T23:48:19.168Z,8.80
2018-12-01T23:50:54.784Z,8.80
2018-12-01T23:53:29.144Z,8.80
2018-12-01T23:59:25.708Z,8.80
